sensor_id;sensor_type;location;lat;lon;timestamp;P1;durP1;ratioP1;P2;durP2;ratioP2
44428;SDS011;30134;47.866;-4.222;2023-05-23T00:00:54;3.90;;;2.85;;
44428;SDS011;30134;47.866;-4.222;2023-05-23T00:03:21;4.78;;;2.80;;
44428;SDS011;30134;47.866;-4.222;2023-05-23T00:05:48;5.60;;;2.90;;
44428;SDS011;30134;47.866;-4.222;2023-05-23T00:08:15;4.10;;;3.05;;
44428;SDS011;30134;47.866;-4.222;2023-05-23T00:10:42;3.30;;;2.65;;
44428;SDS011;30134;47.866;-4.222;2023-05-23T00:13:09;3.15;;;2.40;;
44428;SDS011;30134;47.866;-4.222;2023-05-23T00:15:39;4.85;;;3.05;;
44428;SDS011;30134;47.866;-4.222;2023-05-23T00:18:06;3.95;;;2.80;;
44428;SDS011;30134;47.866;-4.222;2023-05-23T00:20:39;4.00;;;2.40;;
44428;SDS011;30134;47.866;-4.222;2023-05-23T00:23:07;5.30;;;2.75;;
44428;SDS011;30134;47.866;-4.222;2023-05-23T00:25:34;2.55;;;2.35;;
44428;SDS011;30134;47.866;-4.222;2023-05-23T00:28:04;5.15;;;2.72;;
44428;SDS011;30134;47.866;-4.222;2023-05-23T00:30:31;4.20;;;2.83;;
44428;SDS011;30134;47.866;-4.222;2023-05-23T00:32:58;4.28;;;2.70;;
44428;SDS011;30134;47.866;-4.222;2023-05-23T00:35:24;3.22;;;2.67;;
44428;SDS011;30134;47.866;-4.222;2023-05-23T00:37:52;3.33;;;2.83;;
44428;SDS011;30134;47.866;-4.222;2023-05-23T00:40:19;3.47;;;2.13;;
44428;SDS011;30134;47.866;-4.222;2023-05-23T00:42:47;4.35;;;3.08;;
44428;SDS011;30134;47.866;-4.222;2023-05-23T00:45:13;2.90;;;2.40;;
44428;SDS011;30134;47.866;-4.222;2023-05-23T00:47:41;3.08;;;2.60;;
44428;SDS011;30134;47.866;-4.222;2023-05-23T00:50:09;3.33;;;2.42;;
44428;SDS011;30134;47.866;-4.222;2023-05-23T00:52:39;3.83;;;2.70;;
44428;SDS011;30134;47.866;-4.222;2023-05-23T00:55:07;3.55;;;2.50;;
44428;SDS011;30134;47.866;-4.222;2023-05-23T00:57:34;4.25;;;2.95;;
44428;SDS011;30134;47.866;-4.222;2023-05-23T01:00:07;3.28;;;2.72;;
44428;SDS011;30134;47.866;-4.222;2023-05-23T01:02:46;3.42;;;2.50;;
44428;SDS011;30134;47.866;-4.222;2023-05-23T01:05:15;4.47;;;2.78;;
44428;SDS011;30134;47.866;-4.222;2023-05-23T01:07:43;2.78;;;2.45;;
44428;SDS011;30134;47.866;-4.222;2023-05-23T01:10:11;2.67;;;2.38;;
44428;SDS011;30134;47.866;-4.222;2023-05-23T01:12:59;3.83;;;2.47;;
44428;SDS011;30134;47.866;-4.222;2023-05-23T01:21:02;5.13;;;2.95;;
44428;SDS011;30134;47.866;-4.222;2023-05-23T01:23:47;3.15;;;2.58;;
44428;SDS011;30134;47.866;-4.222;2023-05-23T01:26:31;3.35;;;2.55;;
44428;SDS011;30134;47.866;-4.222;2023-05-23T01:31:48;4.85;;;2.63;;
44428;SDS011;30134;47.866;-4.222;2023-05-23T01:34:18;4.78;;;2.90;;
44428;SDS011;30134;47.866;-4.222;2023-05-23T01:36:53;5.25;;;2.55;;
44428;SDS011;30134;47.866;-4.222;2023-05-23T01:39:20;3.05;;;2.45;;
44428;SDS011;30134;47.866;-4.222;2023-05-23T01:41:48;4.00;;;2.80;;
44428;SDS011;30134;47.866;-4.222;2023-05-23T01:44:15;3.20;;;2.40;;
44428;SDS011;30134;47.866;-4.222;2023-05-23T01:46:42;3.35;;;2.55;;
44428;SDS011;30134;47.866;-4.222;2023-05-23T01:49:11;3.50;;;2.30;;
44428;SDS011;30134;47.866;-4.222;2023-05-23T01:51:39;3.25;;;2.78;;
44428;SDS011;30134;47.866;-4.222;2023-05-23T01:54:06;3.90;;;2.35;;
44428;SDS011;30134;47.866;-4.222;2023-05-23T01:56:33;3.10;;;2.53;;
44428;SDS011;30134;47.866;-4.222;2023-05-23T01:59:00;2.70;;;2.33;;
44428;SDS011;30134;47.866;-4.222;2023-05-23T02:01:27;2.50;;;2.30;;
44428;SDS011;30134;47.866;-4.222;2023-05-23T02:03:54;3.53;;;2.75;;
44428;SDS011;30134;47.866;-4.222;2023-05-23T02:06:21;3.88;;;2.67;;
44428;SDS011;30134;47.866;-4.222;2023-05-23T02:08:47;3.58;;;2.70;;
44428;SDS011;30134;47.866;-4.222;2023-05-23T02:11:13;4.32;;;2.78;;
44428;SDS011;30134;47.866;-4.222;2023-05-23T02:13:40;3.50;;;2.30;;
44428;SDS011;30134;47.866;-4.222;2023-05-23T02:16:06;3.92;;;2.63;;
44428;SDS011;30134;47.866;-4.222;2023-05-23T02:18:32;3.30;;;2.47;;
44428;SDS011;30134;47.866;-4.222;2023-05-23T02:21:03;2.90;;;2.40;;
44428;SDS011;30134;47.866;-4.222;2023-05-23T02:23:29;3.97;;;2.40;;
44428;SDS011;30134;47.866;-4.222;2023-05-23T02:25:56;3.17;;;2.63;;
44428;SDS011;30134;47.866;-4.222;2023-05-23T02:28:22;2.67;;;2.20;;
44428;SDS011;30134;47.866;-4.222;2023-05-23T02:30:48;3.25;;;2.60;;
44428;SDS011;30134;47.866;-4.222;2023-05-23T02:33:15;6.28;;;2.63;;
44428;SDS011;30134;47.866;-4.222;2023-05-23T02:35:41;3.05;;;2.45;;
44428;SDS011;30134;47.866;-4.222;2023-05-23T02:38:08;2.55;;;2.20;;
44428;SDS011;30134;47.866;-4.222;2023-05-23T02:40:34;3.03;;;2.60;;
44428;SDS011;30134;47.866;-4.222;2023-05-23T02:43:01;2.90;;;2.50;;
44428;SDS011;30134;47.866;-4.222;2023-05-23T02:45:27;3.50;;;2.58;;
44428;SDS011;30134;47.866;-4.222;2023-05-23T02:47:53;3.22;;;2.78;;
44428;SDS011;30134;47.866;-4.222;2023-05-23T02:50:20;4.30;;;2.45;;
44428;SDS011;30134;47.866;-4.222;2023-05-23T02:52:50;3.72;;;2.60;;
44428;SDS011;30134;47.866;-4.222;2023-05-23T02:55:16;2.80;;;2.13;;
44428;SDS011;30134;47.866;-4.222;2023-05-23T02:57:43;3.53;;;2.58;;
44428;SDS011;30134;47.866;-4.222;2023-05-23T03:00:09;3.97;;;2.78;;
44428;SDS011;30134;47.866;-4.222;2023-05-23T03:02:37;3.90;;;2.67;;
44428;SDS011;30134;47.866;-4.222;2023-05-23T03:05:04;3.80;;;2.58;;
44428;SDS011;30134;47.866;-4.222;2023-05-23T03:07:30;3.03;;;2.50;;
44428;SDS011;30134;47.866;-4.222;2023-05-23T03:09:58;3.88;;;2.40;;
44428;SDS011;30134;47.866;-4.222;2023-05-23T03:12:26;3.42;;;2.58;;
44428;SDS011;30134;47.866;-4.222;2023-05-23T03:14:53;3.88;;;2.42;;
44428;SDS011;30134;47.866;-4.222;2023-05-23T03:17:19;3.03;;;2.22;;
44428;SDS011;30134;47.866;-4.222;2023-05-23T03:19:49;4.20;;;2.78;;
44428;SDS011;30134;47.866;-4.222;2023-05-23T03:22:15;3.20;;;2.50;;
44428;SDS011;30134;47.866;-4.222;2023-05-23T03:24:41;4.03;;;2.67;;
44428;SDS011;30134;47.866;-4.222;2023-05-23T03:27:08;2.45;;;2.25;;
44428;SDS011;30134;47.866;-4.222;2023-05-23T03:29:34;3.00;;;2.53;;
44428;SDS011;30134;47.866;-4.222;2023-05-23T03:32:00;3.22;;;2.30;;
44428;SDS011;30134;47.866;-4.222;2023-05-23T03:34:27;5.30;;;2.42;;
44428;SDS011;30134;47.866;-4.222;2023-05-23T03:36:54;3.40;;;2.67;;
44428;SDS011;30134;47.866;-4.222;2023-05-23T03:39:20;3.10;;;2.67;;
44428;SDS011;30134;47.866;-4.222;2023-05-23T03:41:47;5.50;;;2.72;;
44428;SDS011;30134;47.866;-4.222;2023-05-23T03:44:13;7.80;;;3.10;;
44428;SDS011;30134;47.866;-4.222;2023-05-23T03:46:39;55.60;;;36.22;;
44428;SDS011;30134;47.866;-4.222;2023-05-23T03:49:06;61.78;;;45.78;;
44428;SDS011;30134;47.866;-4.222;2023-05-23T03:51:32;61.85;;;46.67;;
44428;SDS011;30134;47.866;-4.222;2023-05-23T03:53:59;51.25;;;38.33;;
44428;SDS011;30134;47.866;-4.222;2023-05-23T03:56:25;42.40;;;33.10;;
44428;SDS011;30134;47.866;-4.222;2023-05-23T03:58:51;43.10;;;31.75;;
44428;SDS011;30134;47.866;-4.222;2023-05-23T04:01:18;38.50;;;30.65;;
44428;SDS011;30134;47.866;-4.222;2023-05-23T04:03:44;38.47;;;29.20;;
44428;SDS011;30134;47.866;-4.222;2023-05-23T04:06:10;40.55;;;29.00;;
44428;SDS011;30134;47.866;-4.222;2023-05-23T04:08:36;35.13;;;27.90;;
44428;SDS011;30134;47.866;-4.222;2023-05-23T04:11:02;34.88;;;27.08;;
44428;SDS011;30134;47.866;-4.222;2023-05-23T04:13:28;34.55;;;26.92;;
44428;SDS011;30134;47.866;-4.222;2023-05-23T04:15:55;31.92;;;24.20;;
44428;SDS011;30134;47.866;-4.222;2023-05-23T04:18:21;32.90;;;24.40;;
44428;SDS011;30134;47.866;-4.222;2023-05-23T04:20:47;32.75;;;24.55;;
44428;SDS011;30134;47.866;-4.222;2023-05-23T04:23:14;26.77;;;21.48;;
44428;SDS011;30134;47.866;-4.222;2023-05-23T04:25:40;27.63;;;21.83;;
44428;SDS011;30134;47.866;-4.222;2023-05-23T04:28:06;26.73;;;21.20;;
44428;SDS011;30134;47.866;-4.222;2023-05-23T04:30:34;25.50;;;19.95;;
44428;SDS011;30134;47.866;-4.222;2023-05-23T04:33:03;23.77;;;18.88;;
44428;SDS011;30134;47.866;-4.222;2023-05-23T04:35:32;23.20;;;18.58;;
44428;SDS011;30134;47.866;-4.222;2023-05-23T04:38:03;23.30;;;18.08;;
44428;SDS011;30134;47.866;-4.222;2023-05-23T04:40:29;21.35;;;17.08;;
44428;SDS011;30134;47.866;-4.222;2023-05-23T04:42:56;20.52;;;16.25;;
44428;SDS011;30134;47.866;-4.222;2023-05-23T04:45:22;21.55;;;15.65;;
44428;SDS011;30134;47.866;-4.222;2023-05-23T04:47:53;19.88;;;15.35;;
44428;SDS011;30134;47.866;-4.222;2023-05-23T04:50:20;21.00;;;15.25;;
44428;SDS011;30134;47.866;-4.222;2023-05-23T04:52:47;18.65;;;14.48;;
44428;SDS011;30134;47.866;-4.222;2023-05-23T04:55:13;18.15;;;14.02;;
44428;SDS011;30134;47.866;-4.222;2023-05-23T04:57:39;18.85;;;14.15;;
44428;SDS011;30134;47.866;-4.222;2023-05-23T05:00:08;16.95;;;12.82;;
44428;SDS011;30134;47.866;-4.222;2023-05-23T05:02:35;15.30;;;12.68;;
44428;SDS011;30134;47.866;-4.222;2023-05-23T05:05:02;17.60;;;12.05;;
44428;SDS011;30134;47.866;-4.222;2023-05-23T05:07:28;14.55;;;11.85;;
44428;SDS011;30134;47.866;-4.222;2023-05-23T05:09:55;14.43;;;11.70;;
44428;SDS011;30134;47.866;-4.222;2023-05-23T05:12:21;14.50;;;11.25;;
44428;SDS011;30134;47.866;-4.222;2023-05-23T05:14:47;12.10;;;10.00;;
44428;SDS011;30134;47.866;-4.222;2023-05-23T05:17:13;14.63;;;11.57;;
44428;SDS011;30134;47.866;-4.222;2023-05-23T05:19:39;12.23;;;9.93;;
44428;SDS011;30134;47.866;-4.222;2023-05-23T05:22:05;12.65;;;9.40;;
44428;SDS011;30134;47.866;-4.222;2023-05-23T05:24:34;11.70;;;9.55;;
44428;SDS011;30134;47.866;-4.222;2023-05-23T05:27:00;11.27;;;8.82;;
44428;SDS011;30134;47.866;-4.222;2023-05-23T05:29:29;10.65;;;8.38;;
44428;SDS011;30134;47.866;-4.222;2023-05-23T05:31:57;10.47;;;8.20;;
44428;SDS011;30134;47.866;-4.222;2023-05-23T05:34:31;11.77;;;8.05;;
44428;SDS011;30134;47.866;-4.222;2023-05-23T05:36:57;10.02;;;8.00;;
44428;SDS011;30134;47.866;-4.222;2023-05-23T05:39:23;10.07;;;7.68;;
44428;SDS011;30134;47.866;-4.222;2023-05-23T05:41:50;9.13;;;7.65;;
44428;SDS011;30134;47.866;-4.222;2023-05-23T05:44:16;9.88;;;7.45;;
44428;SDS011;30134;47.866;-4.222;2023-05-23T05:46:42;10.55;;;7.90;;
44428;SDS011;30134;47.866;-4.222;2023-05-23T05:49:08;8.68;;;6.68;;
44428;SDS011;30134;47.866;-4.222;2023-05-23T05:51:34;10.32;;;6.75;;
44428;SDS011;30134;47.866;-4.222;2023-05-23T05:54:00;8.23;;;6.60;;
44428;SDS011;30134;47.866;-4.222;2023-05-23T05:56:26;7.43;;;5.93;;
44428;SDS011;30134;47.866;-4.222;2023-05-23T05:58:52;8.48;;;6.47;;
44428;SDS011;30134;47.866;-4.222;2023-05-23T06:01:21;7.78;;;6.45;;
44428;SDS011;30134;47.866;-4.222;2023-05-23T06:03:49;7.70;;;5.80;;
44428;SDS011;30134;47.866;-4.222;2023-05-23T06:06:15;5.85;;;5.13;;
44428;SDS011;30134;47.866;-4.222;2023-05-23T06:08:41;8.65;;;6.25;;
44428;SDS011;30134;47.866;-4.222;2023-05-23T06:11:08;6.13;;;5.35;;
44428;SDS011;30134;47.866;-4.222;2023-05-23T06:13:34;6.57;;;5.38;;
44428;SDS011;30134;47.866;-4.222;2023-05-23T06:16:00;7.80;;;5.80;;
44428;SDS011;30134;47.866;-4.222;2023-05-23T06:18:26;7.28;;;5.45;;
44428;SDS011;30134;47.866;-4.222;2023-05-23T06:20:52;5.75;;;4.78;;
44428;SDS011;30134;47.866;-4.222;2023-05-23T06:23:18;5.35;;;4.70;;
44428;SDS011;30134;47.866;-4.222;2023-05-23T06:25:47;6.57;;;4.80;;
44428;SDS011;30134;47.866;-4.222;2023-05-23T06:28:13;6.78;;;4.78;;
44428;SDS011;30134;47.866;-4.222;2023-05-23T06:30:39;5.45;;;4.70;;
44428;SDS011;30134;47.866;-4.222;2023-05-23T06:33:05;7.40;;;4.80;;
44428;SDS011;30134;47.866;-4.222;2023-05-23T06:35:31;5.82;;;4.35;;
44428;SDS011;30134;47.866;-4.222;2023-05-23T06:37:57;5.95;;;4.60;;
44428;SDS011;30134;47.866;-4.222;2023-05-23T06:40:23;5.50;;;4.25;;
44428;SDS011;30134;47.866;-4.222;2023-05-23T06:42:49;6.25;;;4.40;;
44428;SDS011;30134;47.866;-4.222;2023-05-23T06:45:15;20.00;;;12.70;;
44428;SDS011;30134;47.866;-4.222;2023-05-23T06:47:41;109.05;;;78.30;;
44428;SDS011;30134;47.866;-4.222;2023-05-23T06:50:12;81.07;;;55.53;;
44428;SDS011;30134;47.866;-4.222;2023-05-23T06:52:38;83.57;;;43.47;;
44428;SDS011;30134;47.866;-4.222;2023-05-23T06:55:06;58.92;;;39.40;;
44428;SDS011;30134;47.866;-4.222;2023-05-23T06:57:38;45.38;;;32.72;;
44428;SDS011;30134;47.866;-4.222;2023-05-23T07:00:04;44.05;;;31.33;;
44428;SDS011;30134;47.866;-4.222;2023-05-23T07:02:31;38.10;;;28.58;;
44428;SDS011;30134;47.866;-4.222;2023-05-23T07:05:00;35.63;;;25.85;;
44428;SDS011;30134;47.866;-4.222;2023-05-23T07:07:26;31.38;;;23.77;;
44428;SDS011;30134;47.866;-4.222;2023-05-23T07:09:52;31.27;;;21.30;;
44428;SDS011;30134;47.866;-4.222;2023-05-23T07:12:18;32.85;;;20.42;;
44428;SDS011;30134;47.866;-4.222;2023-05-23T07:14:44;26.35;;;17.92;;
44428;SDS011;30134;47.866;-4.222;2023-05-23T07:17:10;23.38;;;16.15;;
44428;SDS011;30134;47.866;-4.222;2023-05-23T07:19:36;26.80;;;15.40;;
44428;SDS011;30134;47.866;-4.222;2023-05-23T07:22:02;17.20;;;12.63;;
44428;SDS011;30134;47.866;-4.222;2023-05-23T07:24:28;22.50;;;13.10;;
44428;SDS011;30134;47.866;-4.222;2023-05-23T07:26:54;19.45;;;12.38;;
44428;SDS011;30134;47.866;-4.222;2023-05-23T07:29:20;17.63;;;11.77;;
44428;SDS011;30134;47.866;-4.222;2023-05-23T07:31:46;16.02;;;11.23;;
44428;SDS011;30134;47.866;-4.222;2023-05-23T07:34:12;15.27;;;10.10;;
44428;SDS011;30134;47.866;-4.222;2023-05-23T07:36:38;12.57;;;8.63;;
44428;SDS011;30134;47.866;-4.222;2023-05-23T07:39:05;12.88;;;8.90;;
44428;SDS011;30134;47.866;-4.222;2023-05-23T07:41:31;14.27;;;8.23;;
44428;SDS011;30134;47.866;-4.222;2023-05-23T07:43:57;14.35;;;8.27;;
44428;SDS011;30134;47.866;-4.222;2023-05-23T07:46:23;12.68;;;7.82;;
44428;SDS011;30134;47.866;-4.222;2023-05-23T07:48:49;16.10;;;7.22;;
44428;SDS011;30134;47.866;-4.222;2023-05-23T07:51:15;11.30;;;6.82;;
44428;SDS011;30134;47.866;-4.222;2023-05-23T07:53:43;12.88;;;6.78;;
44428;SDS011;30134;47.866;-4.222;2023-05-23T07:56:09;11.35;;;6.57;;
44428;SDS011;30134;47.866;-4.222;2023-05-23T07:58:35;36.53;;;23.00;;
44428;SDS011;30134;47.866;-4.222;2023-05-23T08:01:01;144.63;;;92.88;;
44428;SDS011;30134;47.866;-4.222;2023-05-23T08:03:27;78.53;;;51.03;;
44428;SDS011;30134;47.866;-4.222;2023-05-23T08:05:53;69.63;;;46.80;;
44428;SDS011;30134;47.866;-4.222;2023-05-23T08:08:20;72.05;;;45.20;;
44428;SDS011;30134;47.866;-4.222;2023-05-23T08:10:46;57.95;;;39.03;;
44428;SDS011;30134;47.866;-4.222;2023-05-23T08:13:12;54.33;;;36.20;;
44428;SDS011;30134;47.866;-4.222;2023-05-23T08:15:38;50.38;;;33.65;;
44428;SDS011;30134;47.866;-4.222;2023-05-23T08:18:04;46.60;;;31.02;;
44428;SDS011;30134;47.866;-4.222;2023-05-23T08:20:30;91.78;;;58.10;;
44428;SDS011;30134;47.866;-4.222;2023-05-23T08:23:00;164.90;;;113.18;;
44428;SDS011;30134;47.866;-4.222;2023-05-23T08:25:27;115.00;;;78.85;;
44428;SDS011;30134;47.866;-4.222;2023-05-23T08:27:56;99.63;;;67.60;;
44428;SDS011;30134;47.866;-4.222;2023-05-23T08:30:24;86.53;;;56.50;;
44428;SDS011;30134;47.866;-4.222;2023-05-23T08:32:51;64.00;;;44.17;;
44428;SDS011;30134;47.866;-4.222;2023-05-23T08:35:19;58.22;;;37.30;;
44428;SDS011;30134;47.866;-4.222;2023-05-23T08:37:46;43.22;;;28.73;;
44428;SDS011;30134;47.866;-4.222;2023-05-23T08:40:19;41.83;;;25.92;;
44428;SDS011;30134;47.866;-4.222;2023-05-23T08:42:46;26.15;;;17.33;;
44428;SDS011;30134;47.866;-4.222;2023-05-23T08:45:14;25.00;;;14.95;;
44428;SDS011;30134;47.866;-4.222;2023-05-23T08:47:42;18.55;;;12.40;;
44428;SDS011;30134;47.866;-4.222;2023-05-23T08:50:19;19.08;;;12.05;;
44428;SDS011;30134;47.866;-4.222;2023-05-23T08:52:55;15.88;;;9.68;;
44428;SDS011;30134;47.866;-4.222;2023-05-23T08:55:23;14.80;;;9.70;;
44428;SDS011;30134;47.866;-4.222;2023-05-23T08:57:56;17.02;;;9.05;;
44428;SDS011;30134;47.866;-4.222;2023-05-23T09:00:27;14.65;;;7.78;;
44428;SDS011;30134;47.866;-4.222;2023-05-23T09:02:53;10.63;;;6.30;;
44428;SDS011;30134;47.866;-4.222;2023-05-23T09:05:21;12.55;;;7.10;;
44428;SDS011;30134;47.866;-4.222;2023-05-23T09:07:47;11.98;;;6.50;;
44428;SDS011;30134;47.866;-4.222;2023-05-23T09:10:15;10.60;;;5.72;;
44428;SDS011;30134;47.866;-4.222;2023-05-23T09:12:42;12.30;;;5.28;;
44428;SDS011;30134;47.866;-4.222;2023-05-23T09:15:08;13.23;;;5.35;;
44428;SDS011;30134;47.866;-4.222;2023-05-23T09:17:35;11.60;;;5.03;;
44428;SDS011;30134;47.866;-4.222;2023-05-23T09:20:09;7.68;;;5.00;;
44428;SDS011;30134;47.866;-4.222;2023-05-23T09:22:40;6.70;;;4.25;;
44428;SDS011;30134;47.866;-4.222;2023-05-23T09:25:12;6.93;;;4.15;;
44428;SDS011;30134;47.866;-4.222;2023-05-23T09:27:38;10.23;;;4.22;;
44428;SDS011;30134;47.866;-4.222;2023-05-23T09:30:08;6.35;;;3.92;;
44428;SDS011;30134;47.866;-4.222;2023-05-23T09:32:36;7.05;;;4.32;;
44428;SDS011;30134;47.866;-4.222;2023-05-23T09:35:03;5.88;;;3.55;;
44428;SDS011;30134;47.866;-4.222;2023-05-23T09:37:37;7.85;;;4.15;;
44428;SDS011;30134;47.866;-4.222;2023-05-23T09:40:12;10.55;;;3.90;;
44428;SDS011;30134;47.866;-4.222;2023-05-23T09:42:43;7.65;;;3.42;;
44428;SDS011;30134;47.866;-4.222;2023-05-23T09:45:11;57.80;;;39.03;;
44428;SDS011;30134;47.866;-4.222;2023-05-23T09:47:47;113.95;;;81.30;;
44428;SDS011;30134;47.866;-4.222;2023-05-23T09:50:17;68.35;;;47.55;;
44428;SDS011;30134;47.866;-4.222;2023-05-23T09:52:44;60.47;;;43.83;;
44428;SDS011;30134;47.866;-4.222;2023-05-23T09:55:11;51.00;;;38.00;;
44428;SDS011;30134;47.866;-4.222;2023-05-23T09:57:40;48.05;;;34.40;;
44428;SDS011;30134;47.866;-4.222;2023-05-23T10:00:08;46.20;;;32.95;;
44428;SDS011;30134;47.866;-4.222;2023-05-23T10:02:49;41.80;;;30.33;;
44428;SDS011;30134;47.866;-4.222;2023-05-23T10:05:43;37.90;;;27.10;;
44428;SDS011;30134;47.866;-4.222;2023-05-23T10:08:13;34.08;;;22.35;;
44428;SDS011;30134;47.866;-4.222;2023-05-23T10:11:17;29.17;;;21.23;;
44428;SDS011;30134;47.866;-4.222;2023-05-23T10:13:59;24.23;;;17.05;;
44428;SDS011;30134;47.866;-4.222;2023-05-23T10:19:43;22.45;;;16.58;;
44428;SDS011;30134;47.866;-4.222;2023-05-23T10:22:28;19.75;;;12.70;;
44428;SDS011;30134;47.866;-4.222;2023-05-23T10:24:55;22.63;;;13.75;;
44428;SDS011;30134;47.866;-4.222;2023-05-23T10:27:21;19.65;;;12.60;;
44428;SDS011;30134;47.866;-4.222;2023-05-23T10:29:47;17.63;;;11.35;;
44428;SDS011;30134;47.866;-4.222;2023-05-23T10:32:13;16.80;;;9.45;;
44428;SDS011;30134;47.866;-4.222;2023-05-23T10:34:43;12.68;;;8.65;;
44428;SDS011;30134;47.866;-4.222;2023-05-23T10:37:39;12.85;;;8.73;;
44428;SDS011;30134;47.866;-4.222;2023-05-23T10:43:35;10.98;;;7.43;;
44428;SDS011;30134;47.866;-4.222;2023-05-23T10:46:14;10.13;;;6.28;;
44428;SDS011;30134;47.866;-4.222;2023-05-23T10:48:58;9.50;;;5.88;;
44428;SDS011;30134;47.866;-4.222;2023-05-23T10:51:30;7.20;;;5.20;;
44428;SDS011;30134;47.866;-4.222;2023-05-23T10:54:09;10.40;;;5.30;;
44428;SDS011;30134;47.866;-4.222;2023-05-23T10:56:36;9.20;;;4.82;;
44428;SDS011;30134;47.866;-4.222;2023-05-23T10:59:03;14.88;;;5.32;;
44428;SDS011;30134;47.866;-4.222;2023-05-23T11:01:30;9.35;;;5.18;;
44428;SDS011;30134;47.866;-4.222;2023-05-23T11:04:05;12.15;;;4.63;;
44428;SDS011;30134;47.866;-4.222;2023-05-23T11:06:38;9.85;;;4.95;;
44428;SDS011;30134;47.866;-4.222;2023-05-23T11:09:15;5.40;;;4.07;;
44428;SDS011;30134;47.866;-4.222;2023-05-23T11:14:16;6.50;;;3.95;;
44428;SDS011;30134;47.866;-4.222;2023-05-23T11:16:42;9.00;;;4.00;;
44428;SDS011;30134;47.866;-4.222;2023-05-23T11:21:48;9.15;;;3.97;;
44428;SDS011;30134;47.866;-4.222;2023-05-23T11:24:17;7.85;;;3.88;;
44428;SDS011;30134;47.866;-4.222;2023-05-23T11:26:51;6.38;;;4.22;;
44428;SDS011;30134;47.866;-4.222;2023-05-23T11:29:28;5.70;;;3.80;;
44428;SDS011;30134;47.866;-4.222;2023-05-23T11:31:55;5.70;;;4.00;;
44428;SDS011;30134;47.866;-4.222;2023-05-23T11:34:22;7.53;;;3.97;;
44428;SDS011;30134;47.866;-4.222;2023-05-23T11:36:52;7.40;;;4.35;;
44428;SDS011;30134;47.866;-4.222;2023-05-23T11:39:19;6.10;;;3.63;;
44428;SDS011;30134;47.866;-4.222;2023-05-23T11:42:01;6.93;;;3.50;;
44428;SDS011;30134;47.866;-4.222;2023-05-23T11:46:58;5.53;;;3.53;;
44428;SDS011;30134;47.866;-4.222;2023-05-23T11:49:33;6.72;;;3.70;;
44428;SDS011;30134;47.866;-4.222;2023-05-23T11:52:04;5.75;;;3.63;;
44428;SDS011;30134;47.866;-4.222;2023-05-23T11:54:31;6.88;;;3.78;;
44428;SDS011;30134;47.866;-4.222;2023-05-23T11:56:58;3.97;;;3.40;;
44428;SDS011;30134;47.866;-4.222;2023-05-23T11:59:25;12.52;;;4.05;;
44428;SDS011;30134;47.866;-4.222;2023-05-23T12:01:52;6.22;;;3.38;;
44428;SDS011;30134;47.866;-4.222;2023-05-23T12:04:23;5.90;;;3.40;;
44428;SDS011;30134;47.866;-4.222;2023-05-23T12:06:51;6.47;;;3.55;;
44428;SDS011;30134;47.866;-4.222;2023-05-23T12:09:17;5.75;;;3.60;;
44428;SDS011;30134;47.866;-4.222;2023-05-23T12:11:43;6.72;;;3.58;;
44428;SDS011;30134;47.866;-4.222;2023-05-23T12:14:13;8.32;;;3.42;;
44428;SDS011;30134;47.866;-4.222;2023-05-23T12:16:47;8.40;;;3.47;;
44428;SDS011;30134;47.866;-4.222;2023-05-23T12:19:16;4.95;;;3.38;;
44428;SDS011;30134;47.866;-4.222;2023-05-23T12:21:44;5.63;;;3.22;;
44428;SDS011;30134;47.866;-4.222;2023-05-23T12:26:53;5.40;;;3.15;;
44428;SDS011;30134;47.866;-4.222;2023-05-23T12:29:27;6.40;;;3.45;;
44428;SDS011;30134;47.866;-4.222;2023-05-23T12:32:02;4.93;;;3.25;;
44428;SDS011;30134;47.866;-4.222;2023-05-23T12:34:31;7.40;;;3.40;;
44428;SDS011;30134;47.866;-4.222;2023-05-23T12:36:58;6.75;;;3.60;;
44428;SDS011;30134;47.866;-4.222;2023-05-23T12:39:27;6.10;;;3.78;;
44428;SDS011;30134;47.866;-4.222;2023-05-23T12:42:05;7.13;;;3.20;;
44428;SDS011;30134;47.866;-4.222;2023-05-23T12:44:33;5.55;;;3.17;;
44428;SDS011;30134;47.866;-4.222;2023-05-23T12:47:02;7.00;;;3.55;;
44428;SDS011;30134;47.866;-4.222;2023-05-23T12:49:29;5.82;;;3.63;;
44428;SDS011;30134;47.866;-4.222;2023-05-23T12:51:55;6.85;;;3.55;;
44428;SDS011;30134;47.866;-4.222;2023-05-23T12:54:21;6.82;;;3.00;;
44428;SDS011;30134;47.866;-4.222;2023-05-23T12:56:47;4.75;;;3.50;;
44428;SDS011;30134;47.866;-4.222;2023-05-23T12:59:13;10.52;;;3.70;;
44428;SDS011;30134;47.866;-4.222;2023-05-23T13:01:39;4.45;;;3.05;;
44428;SDS011;30134;47.866;-4.222;2023-05-23T13:04:05;4.82;;;3.08;;
44428;SDS011;30134;47.866;-4.222;2023-05-23T13:06:31;6.93;;;3.45;;
44428;SDS011;30134;47.866;-4.222;2023-05-23T13:08:57;6.00;;;3.20;;
44428;SDS011;30134;47.866;-4.222;2023-05-23T13:11:23;7.80;;;3.67;;
44428;SDS011;30134;47.866;-4.222;2023-05-23T13:13:49;4.60;;;3.03;;
44428;SDS011;30134;47.866;-4.222;2023-05-23T13:16:16;7.18;;;3.20;;
44428;SDS011;30134;47.866;-4.222;2023-05-23T13:18:43;11.45;;;3.35;;
44428;SDS011;30134;47.866;-4.222;2023-05-23T13:21:09;9.90;;;3.30;;
44428;SDS011;30134;47.866;-4.222;2023-05-23T13:23:35;5.63;;;3.03;;
44428;SDS011;30134;47.866;-4.222;2023-05-23T13:26:02;4.03;;;2.80;;
44428;SDS011;30134;47.866;-4.222;2023-05-23T13:28:30;3.92;;;2.90;;
44428;SDS011;30134;47.866;-4.222;2023-05-23T13:30:57;7.47;;;3.35;;
44428;SDS011;30134;47.866;-4.222;2023-05-23T13:33:30;4.05;;;2.90;;
44428;SDS011;30134;47.866;-4.222;2023-05-23T13:35:56;5.05;;;3.00;;
44428;SDS011;30134;47.866;-4.222;2023-05-23T13:38:22;3.25;;;2.80;;
44428;SDS011;30134;47.866;-4.222;2023-05-23T13:40:48;5.40;;;2.90;;
44428;SDS011;30134;47.866;-4.222;2023-05-23T13:43:15;5.03;;;3.38;;
44428;SDS011;30134;47.866;-4.222;2023-05-23T13:45:41;5.40;;;2.83;;
44428;SDS011;30134;47.866;-4.222;2023-05-23T13:48:08;6.50;;;2.83;;
44428;SDS011;30134;47.866;-4.222;2023-05-23T13:50:34;4.65;;;2.90;;
44428;SDS011;30134;47.866;-4.222;2023-05-23T13:53:00;5.53;;;3.00;;
44428;SDS011;30134;47.866;-4.222;2023-05-23T13:55:26;5.75;;;3.05;;
44428;SDS011;30134;47.866;-4.222;2023-05-23T13:57:52;5.18;;;3.00;;
44428;SDS011;30134;47.866;-4.222;2023-05-23T14:00:19;3.63;;;2.80;;
44428;SDS011;30134;47.866;-4.222;2023-05-23T14:02:45;4.47;;;3.00;;
44428;SDS011;30134;47.866;-4.222;2023-05-23T14:05:11;6.10;;;3.28;;
44428;SDS011;30134;47.866;-4.222;2023-05-23T14:07:37;7.85;;;3.42;;
44428;SDS011;30134;47.866;-4.222;2023-05-23T14:10:04;7.13;;;3.05;;
44428;SDS011;30134;47.866;-4.222;2023-05-23T14:12:31;9.35;;;3.10;;
44428;SDS011;30134;47.866;-4.222;2023-05-23T14:15:00;4.15;;;3.20;;
44428;SDS011;30134;47.866;-4.222;2023-05-23T14:17:26;4.65;;;3.03;;
44428;SDS011;30134;47.866;-4.222;2023-05-23T14:19:52;4.63;;;2.95;;
44428;SDS011;30134;47.866;-4.222;2023-05-23T14:22:18;73.65;;;42.90;;
44428;SDS011;30134;47.866;-4.222;2023-05-23T14:24:43;174.07;;;103.97;;
44428;SDS011;30134;47.866;-4.222;2023-05-23T14:27:09;224.07;;;146.65;;
44428;SDS011;30134;47.866;-4.222;2023-05-23T14:29:36;222.30;;;142.65;;
44428;SDS011;30134;47.866;-4.222;2023-05-23T14:32:02;181.50;;;116.80;;
44428;SDS011;30134;47.866;-4.222;2023-05-23T14:34:28;148.85;;;94.63;;
44428;SDS011;30134;47.866;-4.222;2023-05-23T14:36:54;140.07;;;91.70;;
44428;SDS011;30134;47.866;-4.222;2023-05-23T14:39:20;100.82;;;65.13;;
44428;SDS011;30134;47.866;-4.222;2023-05-23T14:41:46;94.22;;;58.65;;
44428;SDS011;30134;47.866;-4.222;2023-05-23T14:44:12;90.45;;;57.03;;
44428;SDS011;30134;47.866;-4.222;2023-05-23T14:46:38;64.03;;;42.90;;
44428;SDS011;30134;47.866;-4.222;2023-05-23T14:49:06;54.72;;;35.90;;
44428;SDS011;30134;47.866;-4.222;2023-05-23T14:51:32;46.22;;;31.23;;
44428;SDS011;30134;47.866;-4.222;2023-05-23T14:53:58;37.50;;;24.23;;